createdAt,value
2023-04-19T00:01:29.576Z,1.08
2023-04-19T00:03:56.977Z,1.10
2023-04-19T00:06:24.729Z,1.25
2023-04-19T00:08:51.427Z,1.58
2023-04-19T00:11:18.200Z,1.50
2023-04-19T00:13:44.894Z,0.88
2023-04-19T00:16:11.651Z,1.00
2023-04-19T00:18:38.879Z,1.58
2023-04-19T00:21:06.130Z,1.10
2023-04-19T00:23:32.821Z,1.13
2023-04-19T00:25:59.516Z,1.38
2023-04-19T00:28:26.336Z,1.60
2023-04-19T00:30:53.138Z,0.90
2023-04-19T00:33:19.864Z,1.10
2023-04-19T00:35:46.635Z,1.13
2023-04-19T00:38:13.212Z,0.90
2023-04-19T00:40:39.850Z,1.42
2023-04-19T00:43:06.451Z,0.88
2023-04-19T00:45:36.497Z,1.10
2023-04-19T00:48:03.256Z,1.30
2023-04-19T00:50:30.596Z,1.13
2023-04-19T00:52:57.970Z,0.88
2023-04-19T00:55:24.790Z,1.27
2023-04-19T00:57:52.378Z,1.02
2023-04-19T01:00:20.065Z,0.93
2023-04-19T01:02:48.009Z,1.13
2023-04-19T01:05:15.116Z,1.10
2023-04-19T01:07:42.542Z,1.20
2023-04-19T01:10:09.854Z,1.48
2023-04-19T01:12:36.541Z,1.10
2023-04-19T01:15:06.683Z,1.13
2023-04-19T01:17:33.507Z,1.17
2023-04-19T01:20:06.619Z,1.25
2023-04-19T01:22:33.254Z,1.10
2023-04-19T01:24:59.973Z,1.10
2023-04-19T01:27:26.612Z,1.33
2023-04-19T01:29:53.227Z,1.48
2023-04-19T01:32:19.826Z,1.70
2023-04-19T01:34:46.599Z,1.58
2023-04-19T01:37:13.197Z,1.58
2023-04-19T01:39:39.834Z,1.88
2023-04-19T01:42:06.403Z,1.60
2023-04-19T01:44:33.002Z,1.95
2023-04-19T01:46:59.856Z,1.52
2023-04-19T01:49:26.501Z,1.52
2023-04-19T01:51:53.131Z,1.77
2023-04-19T01:54:19.717Z,1.58
2023-04-19T01:56:46.267Z,2.00
2023-04-19T01:59:12.869Z,1.50
2023-04-19T02:01:39.541Z,1.90
2023-04-19T02:04:07.814Z,1.95
2023-04-19T02:06:34.473Z,2.15
2023-04-19T02:09:01.124Z,1.55
2023-04-19T02:11:27.718Z,1.58
2023-04-19T02:13:54.372Z,1.73
2023-04-19T02:16:21.074Z,1.83
2023-04-19T02:18:48.220Z,2.17
2023-04-19T02:21:14.844Z,2.05
2023-04-19T02:23:41.483Z,2.10
2023-04-19T02:26:08.197Z,2.15
2023-04-19T02:28:34.970Z,2.20
2023-04-19T02:31:05.859Z,2.25
2023-04-19T02:33:32.541Z,2.35
2023-04-19T02:35:59.110Z,2.55
2023-04-19T02:38:25.777Z,2.10
2023-04-19T02:40:52.438Z,2.30
2023-04-19T02:43:19.012Z,2.20
2023-04-19T02:45:45.789Z,3.00
2023-04-19T02:48:12.485Z,2.35
2023-04-19T02:50:39.103Z,2.67
2023-04-19T02:53:06.032Z,2.03
2023-04-19T02:55:33.393Z,2.30
2023-04-19T02:58:00.048Z,2.90
2023-04-19T03:00:26.921Z,2.80
2023-04-19T03:02:53.719Z,2.53
2023-04-19T03:05:20.530Z,2.92
2023-04-19T03:07:47.310Z,2.20
2023-04-19T03:10:14.048Z,2.67
2023-04-19T03:12:40.616Z,2.83
2023-04-19T03:15:08.471Z,2.33
2023-04-19T03:17:35.882Z,2.80
2023-04-19T03:20:02.795Z,2.67
2023-04-19T03:22:29.692Z,2.60
2023-04-19T03:24:56.840Z,2.30
2023-04-19T03:27:23.569Z,2.53
2023-04-19T03:29:50.335Z,2.33
2023-04-19T03:32:16.941Z,2.47
2023-04-19T03:34:43.608Z,2.40
2023-04-19T03:37:10.172Z,2.15
2023-04-19T03:39:36.983Z,2.05
2023-04-19T03:42:05.682Z,2.33
2023-04-19T03:44:33.378Z,2.90
2023-04-19T03:47:00.016Z,2.80
2023-04-19T03:49:26.700Z,2.85
2023-04-19T03:51:53.347Z,2.97
2023-04-19T03:54:19.930Z,2.72
2023-04-19T03:56:46.584Z,3.45
2023-04-19T03:59:13.257Z,3.22
2023-04-19T04:01:42.389Z,2.53
2023-04-19T04:04:09.678Z,3.20
2023-04-19T04:06:36.433Z,2.75
2023-04-19T04:09:03.887Z,3.38
2023-04-19T04:11:31.017Z,4.00
2023-04-19T04:13:57.814Z,3.45
2023-04-19T04:16:24.573Z,3.60
2023-04-19T04:18:51.350Z,3.40
2023-04-19T04:21:18.002Z,3.78
2023-04-19T04:23:45.672Z,2.97
2023-04-19T04:26:14.042Z,3.50
2023-04-19T04:28:40.788Z,3.70
2023-04-19T04:31:07.557Z,3.95
2023-04-19T04:33:34.174Z,4.07
2023-04-19T04:36:00.846Z,3.60
2023-04-19T04:38:27.586Z,3.60
2023-04-19T04:40:55.322Z,2.95
2023-04-19T04:43:23.737Z,3.47
2023-04-19T04:45:50.545Z,3.40
2023-04-19T04:48:17.809Z,3.17
2023-04-19T04:50:44.397Z,3.45
2023-04-19T04:53:13.245Z,3.17
2023-04-19T04:55:40.124Z,3.00
2023-04-19T04:58:07.374Z,3.55
2023-04-19T05:00:34.585Z,3.55
2023-04-19T05:03:02.987Z,3.83
2023-04-19T05:05:29.961Z,3.50
2023-04-19T05:07:56.635Z,3.03
2023-04-19T05:10:23.458Z,3.08
2023-04-19T05:12:50.073Z,3.63
2023-04-19T05:15:16.985Z,3.95
2023-04-19T05:17:43.822Z,2.72
2023-04-19T05:20:11.161Z,3.28
2023-04-19T05:22:38.049Z,3.45
2023-04-19T05:25:06.001Z,3.25
2023-04-19T05:27:32.696Z,3.05
2023-04-19T05:29:59.334Z,3.33
2023-04-19T05:32:26.225Z,3.53
2023-04-19T05:34:53.173Z,3.17
2023-04-19T05:37:19.842Z,2.92
2023-04-19T05:39:46.495Z,3.38
2023-04-19T05:42:13.241Z,3.15
2023-04-19T05:44:39.884Z,3.28
2023-04-19T05:47:06.484Z,3.03
2023-04-19T05:49:33.110Z,2.90
2023-04-19T05:51:59.753Z,3.17
2023-04-19T05:54:28.146Z,3.08
2023-04-19T05:56:55.024Z,3.28
2023-04-19T05:59:21.636Z,3.45
2023-04-19T06:01:48.276Z,3.20
2023-04-19T06:04:15.239Z,2.85
2023-04-19T06:06:42.320Z,3.20
2023-04-19T06:09:08.943Z,2.70
2023-04-19T06:11:47.115Z,3.17
2023-04-19T06:14:16.890Z,3.38
2023-04-19T06:16:43.759Z,3.22
2023-04-19T06:19:10.323Z,3.60
2023-04-19T06:21:36.996Z,3.40
2023-04-19T06:24:03.897Z,2.92
2023-04-19T06:26:30.666Z,2.95
2023-04-19T06:28:57.362Z,3.15
2023-04-19T06:31:26.884Z,2.72
2023-04-19T06:33:53.573Z,2.92
2023-04-19T06:36:20.609Z,2.33
2023-04-19T06:38:47.204Z,2.83
2023-04-19T06:41:13.835Z,2.80
2023-04-19T06:43:42.164Z,3.03
2023-04-19T06:46:09.138Z,3.13
2023-04-19T06:48:36.122Z,3.58
2023-04-19T06:51:02.811Z,3.08
2023-04-19T06:53:29.547Z,3.25
2023-04-19T06:56:03.051Z,2.75
2023-04-19T06:58:29.794Z,2.60
2023-04-19T07:00:56.822Z,2.50
2023-04-19T07:03:23.632Z,2.47
2023-04-19T07:05:52.425Z,2.55
2023-04-19T07:08:19.096Z,2.50
2023-04-19T07:10:45.723Z,3.00
2023-04-19T07:13:12.655Z,2.85
2023-04-19T07:15:39.308Z,2.05
2023-04-19T07:18:05.953Z,2.60
2023-04-19T07:20:32.731Z,2.40
2023-04-19T07:22:59.781Z,2.65
2023-04-19T07:25:27.075Z,2.65
2023-04-19T07:27:54.805Z,2.92
2023-04-19T07:30:21.618Z,2.33
2023-04-19T07:32:48.553Z,2.30
2023-04-19T07:35:15.350Z,2.83
2023-04-19T07:37:42.645Z,2.17
2023-04-19T07:40:09.927Z,2.35
2023-04-19T07:42:36.829Z,2.83
2023-04-19T07:45:03.586Z,2.50
2023-04-19T07:47:31.432Z,2.17
2023-04-19T07:49:58.153Z,2.03
2023-04-19T07:52:24.853Z,1.95
2023-04-19T07:54:51.490Z,1.80
2023-04-19T07:57:18.206Z,1.98
2023-04-19T07:59:44.839Z,1.92
2023-04-19T08:02:11.540Z,1.88
2023-04-19T08:04:39.687Z,2.30
2023-04-19T08:07:06.920Z,1.85
2023-04-19T08:09:34.348Z,1.60
2023-04-19T08:12:01.610Z,1.95
2023-04-19T08:14:40.512Z,1.85
2023-04-19T08:17:23.923Z,1.98
2023-04-19T08:19:53.011Z,1.77
2023-04-19T08:22:20.317Z,1.90
2023-04-19T08:24:49.240Z,1.42
2023-04-19T08:27:15.864Z,1.58
2023-04-19T08:29:42.564Z,1.92
2023-04-19T08:32:09.331Z,1.88
2023-04-19T08:34:37.445Z,1.35
2023-04-19T08:37:05.052Z,1.58
2023-04-19T08:39:33.970Z,1.55
2023-04-19T08:42:24.188Z,1.70
2023-04-19T08:45:23.350Z,1.55
2023-04-19T08:47:58.642Z,1.70
2023-04-19T08:50:33.598Z,1.45
2023-04-19T08:53:16.512Z,1.50
2023-04-19T08:56:08.480Z,1.83
2023-04-19T08:58:54.851Z,1.05
2023-04-19T09:01:33.665Z,1.25
2023-04-19T09:04:21.673Z,1.38
2023-04-19T09:06:52.263Z,1.73
2023-04-19T09:14:19.509Z,1.50
2023-04-19T09:16:47.111Z,1.65
2023-04-19T09:19:23.353Z,1.40
2023-04-19T09:21:53.134Z,1.17
2023-04-19T09:24:19.798Z,1.10
2023-04-19T09:26:54.789Z,1.65
2023-04-19T09:29:21.860Z,1.50
2023-04-19T09:31:59.013Z,1.33
2023-04-19T09:34:25.892Z,1.13
2023-04-19T09:37:04.445Z,1.70
2023-04-19T09:39:38.443Z,1.52
2023-04-19T09:42:05.256Z,1.30
2023-04-19T09:45:12.634Z,1.27
2023-04-19T09:47:29.904Z,1.25
2023-04-19T09:50:18.857Z,1.48
2023-04-19T09:52:50.326Z,0.98
2023-04-19T09:57:48.439Z,1.13
2023-04-19T10:00:15.783Z,1.30
2023-04-19T10:02:43.620Z,0.98
2023-04-19T10:05:20.752Z,1.08
2023-04-19T10:07:49.428Z,1.30
2023-04-19T10:10:20.720Z,1.20
2023-04-19T10:15:26.815Z,1.40
2023-04-19T10:17:56.729Z,1.20
2023-04-19T10:20:30.409Z,1.42
2023-04-19T10:22:57.373Z,1.45
2023-04-19T10:25:33.126Z,1.50
2023-04-19T10:27:59.867Z,1.50
2023-04-19T10:30:27.304Z,2.13
2023-04-19T10:32:56.354Z,1.30
2023-04-19T10:35:37.749Z,1.50
2023-04-19T10:38:16.532Z,1.38
2023-04-19T10:40:52.522Z,1.60
2023-04-19T10:43:19.868Z,1.92
2023-04-19T10:45:47.783Z,1.45
2023-04-19T10:48:27.648Z,1.52
2023-04-19T10:51:07.476Z,1.30
2023-04-19T10:54:00.094Z,1.30
2023-04-19T10:56:32.860Z,1.60
2023-04-19T10:59:03.021Z,1.50
2023-04-19T11:01:43.549Z,1.35
2023-04-19T11:04:15.657Z,1.58
2023-04-19T11:06:54.317Z,1.60
2023-04-19T11:09:34.541Z,1.30
2023-04-19T11:12:08.337Z,1.35
2023-04-19T11:14:57.599Z,1.40
2023-04-19T11:17:27.759Z,1.60
2023-04-19T11:20:13.584Z,1.05
2023-04-19T11:22:42.471Z,1.23
2023-04-19T11:25:12.527Z,1.30
2023-04-19T11:27:41.174Z,1.27
2023-04-19T11:30:11.514Z,1.65
2023-04-19T11:32:44.266Z,1.73
2023-04-19T11:35:11.284Z,1.50
2023-04-19T11:37:39.320Z,1.50
2023-04-19T11:40:07.364Z,1.98
2023-04-19T11:42:34.170Z,1.08
2023-04-19T11:45:00.818Z,1.20
2023-04-19T11:47:28.051Z,1.10
2023-04-19T11:49:56.007Z,1.38
2023-04-19T11:52:26.555Z,1.15
2023-04-19T11:54:53.991Z,1.10
2023-04-19T11:57:31.012Z,1.10
2023-04-19T12:00:12.441Z,1.10
2023-04-19T12:02:41.108Z,0.75
2023-04-19T12:05:10.352Z,0.93
2023-04-19T12:07:37.344Z,1.30
2023-04-19T12:10:12.167Z,4.30
2023-04-19T12:12:39.390Z,1.73
2023-04-19T12:15:06.718Z,1.30
2023-04-19T12:17:33.322Z,1.20
2023-04-19T12:19:59.910Z,1.45
2023-04-19T12:22:26.590Z,1.60
2023-04-19T12:24:54.453Z,1.83
2023-04-19T12:27:21.058Z,2.17
2023-04-19T12:29:47.657Z,2.33
2023-04-19T12:32:16.147Z,2.55
2023-04-19T12:34:42.891Z,3.38
2023-04-19T12:37:09.626Z,3.65
2023-04-19T12:39:36.207Z,4.55
2023-04-19T12:42:02.949Z,3.70
2023-04-19T12:44:29.594Z,4.50
2023-04-19T12:46:57.789Z,3.50
2023-04-19T12:49:24.618Z,1.85
2023-04-19T12:51:51.337Z,1.45
2023-04-19T12:54:17.994Z,0.20
2023-04-19T12:56:44.639Z,0.40
2023-04-19T12:59:11.584Z,0.60
2023-04-19T13:01:38.523Z,0.50
2023-04-19T13:04:05.523Z,0.40
2023-04-19T13:06:32.233Z,0.47
2023-04-19T13:09:01.109Z,0.77
2023-04-19T13:11:28.633Z,0.98
2023-04-19T13:13:55.312Z,1.40
2023-04-19T13:16:22.643Z,0.52
2023-04-19T13:18:49.631Z,0.35
2023-04-19T13:21:16.384Z,0.70
2023-04-19T13:23:44.378Z,0.50
2023-04-19T13:26:11.286Z,0.80
2023-04-19T13:28:37.909Z,0.93
2023-04-19T13:31:05.796Z,1.10
2023-04-19T13:33:32.730Z,0.75
2023-04-19T13:35:59.316Z,0.60
2023-04-19T13:38:26.061Z,0.60
2023-04-19T13:40:52.815Z,1.00
2023-04-19T13:43:19.558Z,0.70
2023-04-19T13:45:46.329Z,0.60
2023-04-19T13:48:13.048Z,0.47
2023-04-19T13:50:39.738Z,0.60
2023-04-19T13:53:06.584Z,0.60
2023-04-19T13:55:33.626Z,0.70
2023-04-19T13:58:00.330Z,0.70
2023-04-19T14:00:27.057Z,0.55
2023-04-19T14:02:54.781Z,0.90
2023-04-19T14:05:21.508Z,0.93
2023-04-19T14:07:48.151Z,3.13
2023-04-19T14:10:14.769Z,1.92
2023-04-19T14:12:41.461Z,0.77
2023-04-19T14:15:08.598Z,0.80
2023-04-19T14:17:36.143Z,1.00
2023-04-19T14:20:06.362Z,1.20
2023-04-19T14:22:35.180Z,1.33
2023-04-19T14:25:02.416Z,1.33
2023-04-19T14:27:29.000Z,1.73
2023-04-19T14:29:55.684Z,1.45
2023-04-19T14:32:26.468Z,1.88
2023-04-19T14:34:55.869Z,1.13
2023-04-19T14:37:24.388Z,1.02
2023-04-19T14:39:51.563Z,1.30
2023-04-19T14:42:20.084Z,1.73
2023-04-19T14:44:51.041Z,1.60
2023-04-19T14:47:17.707Z,1.50
2023-04-19T14:49:44.360Z,1.90
2023-04-19T14:52:11.145Z,1.20
2023-04-19T14:54:37.995Z,1.73
2023-04-19T14:57:04.588Z,2.08
2023-04-19T14:59:31.199Z,1.02
2023-04-19T15:01:58.046Z,1.73
2023-04-19T15:04:25.029Z,2.03
2023-04-19T15:06:51.838Z,1.88
2023-04-19T15:09:18.713Z,1.77
2023-04-19T15:11:45.735Z,1.90
2023-04-19T15:14:12.499Z,2.22
2023-04-19T15:16:39.314Z,2.30
2023-04-19T15:19:07.664Z,2.35
2023-04-19T15:21:34.721Z,2.15
2023-04-19T15:24:01.608Z,2.75
2023-04-19T15:26:28.467Z,2.35
2023-04-19T15:28:56.374Z,3.33
2023-04-19T15:31:25.044Z,2.95
2023-04-19T15:33:51.814Z,2.35
2023-04-19T15:36:18.364Z,1.85
2023-04-19T15:38:44.958Z,2.45
2023-04-19T15:41:11.592Z,3.33
2023-04-19T15:43:38.275Z,4.35
2023-04-19T15:46:05.053Z,2.97
2023-04-19T15:48:31.843Z,2.65
2023-04-19T15:50:59.142Z,3.15
2023-04-19T15:53:25.791Z,3.20
2023-04-19T15:55:54.222Z,3.40
2023-04-19T15:58:22.232Z,3.78
2023-04-19T16:00:50.290Z,3.55
2023-04-19T16:03:16.944Z,2.67
2023-04-19T16:05:43.565Z,3.17
2023-04-19T16:08:11.890Z,3.05
2023-04-19T16:10:39.479Z,2.58
2023-04-19T16:13:06.648Z,2.25
2023-04-19T16:15:33.325Z,2.22
2023-04-19T16:18:00.017Z,1.70
2023-04-19T16:20:26.848Z,1.83
2023-04-19T16:22:53.581Z,2.25
2023-04-19T16:25:20.334Z,1.90
2023-04-19T16:27:47.645Z,2.45
2023-04-19T16:30:15.442Z,2.53
2023-04-19T16:32:42.664Z,2.58
2023-04-19T16:35:09.941Z,2.88
2023-04-19T16:37:36.951Z,2.45
2023-04-19T16:40:08.421Z,2.55
2023-04-19T16:42:36.492Z,3.80
2023-04-19T16:45:04.536Z,4.18
2023-04-19T16:47:31.310Z,3.35
2023-04-19T16:50:02.263Z,3.53
2023-04-19T16:52:34.305Z,4.50
2023-04-19T16:55:03.707Z,4.40
2023-04-19T16:57:31.793Z,3.83
2023-04-19T16:59:59.028Z,4.40
2023-04-19T17:02:26.276Z,4.40
2023-04-19T17:04:53.162Z,5.45
2023-04-19T17:07:19.920Z,6.18
2023-04-19T17:09:47.099Z,4.70
2023-04-19T17:12:14.299Z,5.13
2023-04-19T17:14:41.159Z,5.25
2023-04-19T17:17:07.970Z,4.93
2023-04-19T17:19:34.852Z,5.82
2023-04-19T17:22:05.608Z,5.75
2023-04-19T17:24:33.360Z,5.70
2023-04-19T17:27:00.888Z,5.82
2023-04-19T17:29:28.603Z,5.43
2023-04-19T17:31:56.228Z,5.72
2023-04-19T17:34:23.354Z,6.18
2023-04-19T17:36:50.081Z,7.20
2023-04-19T17:39:17.199Z,5.93
2023-04-19T17:41:44.907Z,5.88
2023-04-19T17:44:12.632Z,5.90
2023-04-19T17:46:40.512Z,4.93
2023-04-19T17:49:07.263Z,4.53
2023-04-19T17:51:33.941Z,5.35
2023-04-19T17:54:00.697Z,4.85
2023-04-19T17:56:27.565Z,4.05
2023-04-19T17:58:54.474Z,4.97
2023-04-19T18:01:21.339Z,4.60
2023-04-19T18:03:48.292Z,4.90
2023-04-19T18:06:16.493Z,5.13
2023-04-19T18:08:46.425Z,5.20
2023-04-19T18:11:13.545Z,5.13
2023-04-19T18:13:40.202Z,5.90
2023-04-19T18:16:06.995Z,5.00
2023-04-19T18:18:33.811Z,5.55
2023-04-19T18:21:05.230Z,5.15
2023-04-19T18:23:32.470Z,5.20
2023-04-19T18:26:02.887Z,5.75
2023-04-19T18:28:30.024Z,5.55
2023-04-19T18:31:02.388Z,5.40
2023-04-19T18:33:29.029Z,4.28
2023-04-19T18:35:55.710Z,5.25
2023-04-19T18:38:22.604Z,5.95
2023-04-19T18:40:49.730Z,5.32
2023-04-19T18:43:16.381Z,5.55
2023-04-19T18:45:43.041Z,5.63
2023-04-19T18:48:10.188Z,5.75
2023-04-19T18:50:38.193Z,5.72
2023-04-19T18:53:04.863Z,5.80
2023-04-19T18:55:31.623Z,6.43
2023-04-19T18:58:01.111Z,6.55
2023-04-19T19:00:28.559Z,5.95
2023-04-19T19:02:57.329Z,5.82
2023-04-19T19:05:24.381Z,5.78
2023-04-19T19:07:51.360Z,5.78
2023-04-19T19:10:21.761Z,5.93
2023-04-19T19:12:49.937Z,5.87
2023-04-19T19:15:17.533Z,5.28
2023-04-19T19:17:49.381Z,5.35
2023-04-19T19:20:17.569Z,4.65
2023-04-19T19:22:45.602Z,5.75
2023-04-19T19:25:13.214Z,5.80
2023-04-19T19:27:40.170Z,5.82
2023-04-19T19:30:08.036Z,5.88
2023-04-19T19:32:35.366Z,5.88
2023-04-19T19:35:06.381Z,6.50
2023-04-19T19:37:36.454Z,6.45
2023-04-19T19:40:06.403Z,6.55
2023-04-19T19:42:34.545Z,6.65
2023-04-19T19:45:02.401Z,6.60
2023-04-19T19:47:31.652Z,5.65
2023-04-19T19:52:28.653Z,5.35
2023-04-19T19:54:55.415Z,6.22
2023-04-19T19:59:56.224Z,6.82
2023-04-19T20:02:26.623Z,7.18
2023-04-19T20:04:53.885Z,7.47
2023-04-19T20:09:52.397Z,6.05
2023-04-19T20:12:19.174Z,7.03
2023-04-19T20:14:45.755Z,6.80
2023-04-19T20:17:12.432Z,6.85
2023-04-19T20:19:39.801Z,6.45
2023-04-19T20:22:06.387Z,6.75
2023-04-19T20:24:33.803Z,6.72
2023-04-19T20:27:01.286Z,6.20
2023-04-19T20:29:27.893Z,7.28
2023-04-19T20:31:54.590Z,6.75
2023-04-19T20:34:21.381Z,6.55
2023-04-19T20:36:48.328Z,7.68
2023-04-19T20:39:15.255Z,6.07
2023-04-19T20:41:42.049Z,7.03
2023-04-19T20:44:08.684Z,5.70
2023-04-19T20:46:35.913Z,5.60
2023-04-19T20:49:02.740Z,6.32
2023-04-19T20:51:29.306Z,6.05
2023-04-19T20:53:56.187Z,6.40
2023-04-19T20:56:23.173Z,6.47
2023-04-19T20:58:49.940Z,6.43
2023-04-19T21:01:17.605Z,6.90
2023-04-19T21:03:45.041Z,7.43
2023-04-19T21:06:12.656Z,7.05
2023-04-19T21:08:39.340Z,7.15
2023-04-19T21:11:06.035Z,6.82
2023-04-19T21:13:33.208Z,6.50
2023-04-19T21:16:00.042Z,6.53
2023-04-19T21:18:29.754Z,7.68
2023-04-19T21:20:57.754Z,6.45
2023-04-19T21:23:24.480Z,6.80
2023-04-19T21:25:51.572Z,6.60
2023-04-19T21:28:18.229Z,6.47
2023-04-19T21:30:45.098Z,6.70
2023-04-19T21:33:11.915Z,5.32
2023-04-19T21:35:38.769Z,5.80
2023-04-19T21:38:05.555Z,6.03
2023-04-19T21:40:32.146Z,5.53
2023-04-19T21:42:58.882Z,5.18
2023-04-19T21:45:25.637Z,5.68
2023-04-19T21:47:52.341Z,5.35
2023-04-19T21:50:19.180Z,5.32
2023-04-19T21:52:45.913Z,5.60
2023-04-19T21:55:12.641Z,5.43
2023-04-19T21:57:39.288Z,5.25
2023-04-19T22:00:09.251Z,5.70
2023-04-19T22:02:36.441Z,5.75
2023-04-19T22:05:03.480Z,5.55
2023-04-19T22:07:33.310Z,5.35
2023-04-19T22:10:02.884Z,5.55
2023-04-19T22:12:29.491Z,5.60
2023-04-19T22:14:56.158Z,5.15
2023-04-19T22:17:23.216Z,5.85
2023-04-19T22:19:50.080Z,5.53
2023-04-19T22:22:16.719Z,5.80
2023-04-19T22:24:56.302Z,6.05
2023-04-19T22:27:24.467Z,5.32
2023-04-19T22:29:51.116Z,5.32
2023-04-19T22:32:18.067Z,5.13
2023-04-19T22:34:45.036Z,4.45
2023-04-19T22:37:11.792Z,5.18
2023-04-19T22:39:38.429Z,4.95
2023-04-19T22:42:05.414Z,4.95
2023-04-19T22:44:32.143Z,4.75
2023-04-19T22:47:00.057Z,4.70
2023-04-19T22:49:26.729Z,4.95
2023-04-19T22:51:54.988Z,4.68
2023-04-19T22:54:22.084Z,5.22
2023-04-19T22:56:48.736Z,5.13
2023-04-19T22:59:15.700Z,4.95
2023-04-19T23:01:42.462Z,5.03
2023-04-19T23:04:13.970Z,4.65
2023-04-19T23:06:42.577Z,5.85
2023-04-19T23:09:11.092Z,5.22
2023-04-19T23:11:37.745Z,5.72
2023-04-19T23:14:04.558Z,5.88
2023-04-19T23:16:33.498Z,6.03
2023-04-19T23:19:01.144Z,6.45
2023-04-19T23:21:30.038Z,6.38
2023-04-19T23:23:56.746Z,6.57
2023-04-19T23:26:23.426Z,5.85
2023-04-19T23:28:50.044Z,5.03
2023-04-19T23:31:16.680Z,5.45
2023-04-19T23:33:43.363Z,5.65
2023-04-19T23:36:10.088Z,6.50
2023-04-19T23:38:36.776Z,5.10
2023-04-19T23:41:03.472Z,5.57
2023-04-19T23:43:30.945Z,4.75
2023-04-19T23:45:57.564Z,6.15
2023-04-19T23:48:24.143Z,5.63
2023-04-19T23:50:50.686Z,5.72
2023-04-19T23:53:17.377Z,5.55
2023-04-19T23:55:44.022Z,5.00
2023-04-19T23:58:10.631Z,5.50
